createdAt,value
2018-09-08T00:03:56.958Z,15.60
2018-09-08T00:08:01.325Z,15.60
2018-09-08T00:12:05.532Z,15.50
2018-09-08T00:16:15.001Z,15.50
2018-09-08T00:20:24.636Z,15.40
2018-09-08T00:24:33.812Z,15.60
2018-09-08T00:28:54.316Z,15.50
2018-09-08T00:32:58.534Z,15.50
2018-09-08T00:37:02.863Z,15.40
2018-09-08T00:41:07.295Z,15.50
2018-09-08T00:45:11.537Z,15.50
2018-09-08T00:49:15.839Z,15.50
2018-09-08T00:53:20.078Z,15.40
2018-09-08T00:57:24.264Z,15.40
2018-09-08T01:01:28.658Z,15.40
2018-09-08T01:05:33.151Z,15.40
2018-09-08T01:09:37.492Z,15.40
2018-09-08T01:13:41.706Z,15.30
2018-09-08T01:17:45.936Z,15.30
2018-09-08T01:21:50.404Z,15.30
2018-09-08T01:25:54.625Z,15.40
2018-09-08T01:29:58.823Z,15.40
2018-09-08T01:34:03.066Z,15.30
2018-09-08T01:38:07.562Z,15.30
2018-09-08T01:42:11.813Z,15.30
2018-09-08T01:46:15.989Z,15.30
2018-09-08T01:50:20.387Z,15.30
2018-09-08T01:54:24.552Z,15.30
2018-09-08T01:58:28.850Z,15.30
2018-09-08T02:02:33.503Z,15.20
2018-09-08T02:06:37.764Z,15.20
2018-09-08T02:10:42.319Z,15.20
2018-09-08T02:14:46.499Z,15.20
2018-09-08T02:18:50.923Z,15.10
2018-09-08T02:22:55.216Z,15.20
2018-09-08T02:26:59.541Z,15.10
2018-09-08T02:31:03.836Z,15.10
2018-09-08T02:35:08.282Z,15.10
2018-09-08T02:39:12.529Z,15.00
2018-09-08T02:43:16.861Z,15.10
2018-09-08T02:47:21.087Z,15.00
2018-09-08T02:51:23.880Z,15.10
2018-09-08T02:55:26.775Z,15.00
2018-09-08T02:59:29.569Z,14.90
2018-09-08T03:03:32.260Z,14.90
2018-09-08T03:07:35.151Z,14.90
2018-09-08T03:11:37.854Z,14.90
2018-09-08T03:15:40.524Z,14.90
2018-09-08T03:19:43.237Z,14.80
2018-09-08T03:23:45.935Z,14.80
2018-09-08T03:27:48.592Z,14.80
2018-09-08T03:31:51.415Z,14.70
2018-09-08T03:35:54.122Z,14.70
2018-09-08T03:39:56.861Z,14.80
2018-09-08T03:43:59.654Z,14.70
2018-09-08T03:48:03.433Z,14.60
2018-09-08T03:52:06.151Z,14.60
2018-09-08T03:56:08.867Z,14.60
2018-09-08T04:00:11.619Z,14.50
2018-09-08T04:04:15.861Z,14.60
2018-09-08T04:08:20.164Z,14.60
2018-09-08T04:12:24.344Z,14.60
2018-09-08T04:16:28.623Z,14.70
2018-09-08T04:20:32.772Z,14.60
2018-09-08T04:24:37.047Z,14.60
2018-09-08T04:28:41.281Z,14.50
2018-09-08T04:32:45.583Z,14.60
2018-09-08T04:36:49.921Z,14.60
2018-09-08T04:40:54.255Z,14.60
2018-09-08T04:44:58.967Z,14.60
2018-09-08T04:49:03.373Z,14.60
2018-09-08T04:53:07.665Z,14.60
2018-09-08T04:57:11.945Z,14.60
2018-09-08T05:01:16.225Z,14.60
2018-09-08T05:05:20.453Z,14.70
2018-09-08T05:09:24.745Z,14.80
2018-09-08T05:13:28.953Z,14.80
2018-09-08T05:17:33.561Z,14.80
2018-09-08T05:21:37.769Z,14.90
2018-09-08T05:25:42.069Z,15.00
2018-09-08T05:29:46.308Z,15.00
2018-09-08T05:33:50.549Z,15.10
2018-09-08T05:37:54.783Z,15.10
2018-09-08T05:41:59.259Z,15.30
2018-09-08T05:46:03.494Z,15.30
2018-09-08T05:50:07.882Z,15.30
2018-09-08T05:54:12.093Z,15.40
2018-09-08T05:58:16.438Z,15.50
2018-09-08T06:02:21.223Z,15.50
2018-09-08T06:06:25.620Z,15.60
2018-09-08T06:10:29.897Z,15.70
2018-09-08T06:14:34.164Z,15.60
2018-09-08T06:18:38.608Z,15.60
2018-09-08T06:22:43.073Z,15.80
2018-09-08T06:26:47.658Z,16.00
2018-09-08T06:30:52.102Z,16.30
2018-09-08T06:34:56.418Z,16.60
2018-09-08T06:39:00.665Z,16.70
2018-09-08T06:43:08.411Z,16.80
2018-09-08T06:47:12.633Z,16.80
2018-09-08T06:51:16.869Z,17.00
2018-09-08T06:55:22.021Z,17.30
2018-09-08T06:59:26.260Z,17.40
2018-09-08T07:03:30.578Z,17.60
2018-09-08T07:07:34.826Z,17.80
2018-09-08T07:11:39.060Z,17.70
2018-09-08T07:15:43.288Z,17.80
2018-09-08T07:19:47.611Z,17.70
2018-09-08T07:23:51.824Z,17.50
2018-09-08T07:27:56.081Z,17.60
2018-09-08T07:32:01.105Z,17.50
2018-09-08T07:36:05.441Z,17.60
2018-09-08T07:40:09.713Z,18.10
2018-09-08T07:44:15.232Z,18.40
2018-09-08T07:48:19.453Z,18.60
2018-09-08T07:52:23.913Z,18.60
2018-09-08T07:56:28.140Z,18.70
2018-09-08T08:00:32.372Z,18.80
2018-09-08T08:04:36.706Z,18.90
2018-09-08T08:08:40.915Z,19.20
2018-09-08T08:12:45.463Z,19.80
2018-09-08T08:16:50.247Z,20.20
2018-09-08T08:20:54.785Z,20.40
2018-09-08T08:24:58.992Z,20.60
2018-09-08T08:29:03.273Z,20.50
2018-09-08T08:33:07.582Z,20.50
2018-09-08T08:37:11.956Z,20.80
2018-09-08T08:41:16.720Z,21.00
2018-09-08T08:45:20.943Z,21.00
2018-09-08T08:49:25.219Z,21.40
2018-09-08T08:53:40.487Z,21.70
2018-09-08T08:57:44.943Z,21.80
2018-09-08T09:01:49.144Z,22.40
2018-09-08T09:05:53.499Z,23.00
2018-09-08T09:09:58.529Z,23.40
2018-09-08T09:14:02.868Z,24.00
2018-09-08T09:18:07.092Z,23.70
2018-09-08T09:22:23.540Z,24.30
2018-09-08T09:26:27.999Z,24.80
2018-09-08T09:30:32.394Z,24.90
2018-09-08T09:34:36.701Z,25.20
2018-09-08T09:38:41.201Z,25.20
2018-09-08T09:42:45.436Z,25.50
2018-09-08T09:46:49.815Z,25.40
2018-09-08T09:50:54.223Z,25.90
2018-09-08T09:54:58.635Z,25.70
2018-09-08T09:59:02.878Z,26.70
2018-09-08T10:03:07.637Z,26.60
2018-09-08T10:07:13.267Z,27.10
2018-09-08T10:11:17.578Z,27.00
2018-09-08T10:15:22.047Z,27.70
2018-09-08T10:19:26.308Z,27.70
2018-09-08T10:23:30.603Z,26.90
2018-09-08T10:27:35.583Z,27.10
2018-09-08T10:31:39.999Z,27.20
2018-09-08T10:35:44.581Z,27.10
2018-09-08T10:39:48.960Z,27.50
2018-09-08T10:43:53.556Z,27.10
2018-09-08T10:47:57.794Z,26.20
2018-09-08T10:52:39.250Z,26.40
2018-09-08T10:56:43.820Z,27.70
2018-09-08T11:00:48.810Z,28.20
2018-09-08T11:04:53.461Z,27.30
2018-09-08T11:08:57.863Z,28.50
2018-09-08T11:13:02.324Z,29.20
2018-09-08T11:17:06.803Z,30.50
2018-09-08T11:21:11.190Z,31.70
2018-09-08T11:25:15.631Z,30.20
2018-09-08T11:29:20.146Z,28.10
2018-09-08T11:33:24.885Z,26.70
2018-09-08T11:37:29.127Z,25.80
2018-09-08T11:41:33.626Z,24.70
2018-09-08T11:45:38.078Z,23.70
2018-09-08T11:49:43.109Z,23.60
2018-09-08T11:53:47.592Z,23.70
2018-09-08T11:57:52.184Z,23.70
2018-09-08T12:01:56.489Z,23.50
2018-09-08T12:06:00.724Z,23.40
2018-09-08T12:10:05.252Z,23.40
2018-09-08T12:14:09.971Z,23.30
2018-09-08T12:18:14.312Z,23.60
2018-09-08T12:22:18.745Z,23.70
2018-09-08T12:26:23.497Z,23.90
2018-09-08T12:30:27.762Z,23.80
2018-09-08T12:34:32.854Z,23.60
2018-09-08T12:38:37.717Z,23.10
2018-09-08T12:42:42.854Z,23.10
2018-09-08T12:46:47.703Z,23.10
2018-09-08T12:50:52.806Z,23.00
2018-09-08T12:54:57.935Z,23.10
2018-09-08T12:59:03.293Z,23.10
2018-09-08T13:03:08.414Z,23.60
2018-09-08T13:07:13.046Z,25.30
2018-09-08T13:11:18.189Z,26.20
2018-09-08T13:15:23.329Z,26.00
2018-09-08T13:19:27.872Z,25.30
2018-09-08T13:23:32.224Z,25.00
2018-09-08T13:27:37.191Z,26.50
2018-09-08T13:31:42.583Z,28.80
2018-09-08T13:35:47.268Z,29.10
2018-09-08T13:39:52.052Z,30.20
2018-09-08T13:43:57.101Z,32.00
2018-09-08T13:48:01.567Z,31.80
2018-09-08T13:52:06.247Z,32.50
2018-09-08T13:56:11.451Z,32.80
2018-09-08T14:00:16.098Z,33.30
2018-09-08T14:04:21.130Z,33.80
2018-09-08T14:08:25.433Z,32.00
2018-09-08T14:12:29.660Z,30.50
2018-09-08T14:16:34.457Z,30.50
2018-09-08T14:20:39.045Z,31.50
2018-09-08T14:24:43.352Z,33.40
2018-09-08T14:28:47.604Z,34.30
2018-09-08T14:32:51.897Z,34.40
2018-09-08T14:36:56.246Z,34.20
2018-09-08T14:41:00.553Z,33.40
2018-09-08T14:45:04.947Z,33.90
2018-09-08T14:49:09.629Z,33.00
2018-09-08T14:53:14.577Z,32.20
2018-09-08T14:57:19.216Z,31.40
2018-09-08T15:01:23.967Z,31.10
2018-09-08T15:05:28.673Z,31.40
2018-09-08T15:09:36.837Z,30.20
2018-09-08T15:13:41.453Z,29.00
2018-09-08T15:17:46.745Z,27.90
2018-09-08T15:21:51.526Z,26.80
2018-09-08T15:25:56.709Z,26.10
2018-09-08T15:30:01.402Z,25.60
2018-09-08T15:34:05.984Z,25.80
2018-09-08T15:38:10.922Z,25.50
2018-09-08T15:42:15.642Z,24.80
2018-09-08T15:46:20.025Z,24.40
2018-09-08T15:50:24.479Z,23.80
2018-09-08T15:54:29.056Z,23.40
2018-09-08T15:58:38.637Z,23.10
2018-09-08T16:02:43.541Z,23.00
2018-09-08T16:06:48.428Z,22.60
2018-09-08T16:10:52.986Z,22.40
2018-09-08T16:14:59.690Z,21.80
2018-09-08T16:19:04.586Z,21.50
2018-09-08T16:23:09.182Z,21.60
2018-09-08T16:27:14.171Z,21.50
2018-09-08T16:31:18.993Z,21.40
2018-09-08T16:35:24.364Z,21.30
2018-09-08T16:39:30.066Z,21.10
2018-09-08T16:43:35.503Z,20.80
2018-09-08T16:47:40.660Z,20.80
2018-09-08T16:51:45.637Z,20.60
2018-09-08T16:55:50.617Z,20.40
2018-09-08T16:59:55.107Z,20.00
2018-09-08T17:03:59.763Z,19.60
2018-09-08T17:08:05.331Z,19.40
2018-09-08T17:12:09.709Z,19.20
2018-09-08T17:16:14.285Z,18.90
2018-09-08T17:20:19.081Z,18.70
2018-09-08T17:24:23.258Z,18.40
2018-09-08T17:28:27.881Z,18.40
2018-09-08T17:32:32.597Z,18.30
2018-09-08T17:36:36.945Z,18.20
2018-09-08T17:40:42.406Z,18.10
2018-09-08T17:44:46.748Z,18.00
2018-09-08T17:48:51.005Z,18.10
2018-09-08T17:52:55.621Z,17.80
2018-09-08T17:57:00.160Z,17.60
2018-09-08T18:01:04.702Z,17.40
2018-09-08T18:05:09.230Z,17.20
2018-09-08T18:09:13.705Z,17.10
2018-09-08T18:13:18.439Z,17.00
2018-09-08T18:17:23.280Z,17.00
2018-09-08T18:21:28.710Z,16.90
2018-09-08T18:25:33.156Z,16.70
2018-09-08T18:29:41.338Z,16.50
2018-09-08T18:33:46.482Z,16.40
2018-09-08T18:37:50.947Z,16.50
2018-09-08T18:41:55.387Z,16.60
2018-09-08T18:46:00.125Z,16.60
2018-09-08T18:50:04.669Z,16.50
2018-09-08T18:54:09.396Z,16.50
2018-09-08T18:58:13.958Z,16.40
2018-09-08T19:02:18.887Z,16.20
2018-09-08T19:06:23.898Z,16.00
2018-09-08T19:10:32.956Z,15.90
2018-09-08T19:14:42.517Z,15.80
2018-09-08T19:18:47.387Z,15.70
2018-09-08T19:22:52.183Z,15.60
2018-09-08T19:26:56.719Z,15.70
2018-09-08T19:31:01.172Z,15.70
2018-09-08T19:35:10.806Z,15.50
2018-09-08T19:39:15.587Z,15.50
2018-09-08T19:43:21.276Z,15.50
2018-09-08T19:47:30.754Z,15.70
2018-09-08T19:51:35.461Z,15.90
2018-09-08T19:55:40.597Z,16.00
2018-09-08T19:59:45.095Z,16.10
2018-09-08T20:03:49.692Z,16.20
2018-09-08T20:07:55.731Z,16.20
2018-09-08T20:12:00.069Z,16.00
2018-09-08T20:16:04.485Z,15.90
2018-09-08T20:20:08.966Z,15.90
2018-09-08T20:24:13.217Z,15.60
2018-09-08T20:28:17.677Z,15.40
2018-09-08T20:32:22.116Z,15.40
2018-09-08T20:36:26.434Z,15.20
2018-09-08T20:40:30.786Z,15.10
2018-09-08T20:44:35.130Z,15.00
2018-09-08T20:48:39.359Z,14.90
2018-09-08T20:52:43.819Z,14.80
2018-09-08T20:56:48.351Z,14.80
2018-09-08T21:00:52.630Z,14.70
2018-09-08T21:04:57.085Z,14.70
2018-09-08T21:09:02.491Z,14.70
2018-09-08T21:13:06.799Z,14.80
2018-09-08T21:17:11.207Z,14.80
2018-09-08T21:21:15.425Z,14.80
2018-09-08T21:25:19.780Z,14.80
2018-09-08T21:29:24.174Z,14.80
2018-09-08T21:33:28.472Z,14.80
2018-09-08T21:37:32.721Z,14.80
2018-09-08T21:41:37.353Z,14.80
2018-09-08T21:45:41.804Z,14.80
2018-09-08T21:49:46.026Z,14.70
2018-09-08T21:53:50.614Z,14.70
2018-09-08T21:57:54.844Z,14.70
2018-09-08T22:02:00.173Z,14.70
2018-09-08T22:06:04.889Z,14.60
2018-09-08T22:10:09.288Z,14.60
2018-09-08T22:14:13.628Z,14.60
2018-09-08T22:18:17.925Z,14.60
2018-09-08T22:22:22.152Z,14.60
2018-09-08T22:26:26.611Z,14.60
2018-09-08T22:30:30.843Z,14.50
2018-09-08T22:34:35.403Z,14.50
2018-09-08T22:38:39.749Z,14.50
2018-09-08T22:42:43.946Z,14.50
2018-09-08T22:46:48.226Z,14.40
2018-09-08T22:50:52.401Z,14.50
2018-09-08T22:54:56.906Z,14.50
2018-09-08T22:59:01.249Z,14.50
2018-09-08T23:03:05.592Z,14.50
2018-09-08T23:07:09.824Z,14.50
2018-09-08T23:11:14.412Z,14.50
2018-09-08T23:15:18.608Z,14.50
2018-09-08T23:19:22.870Z,14.50
2018-09-08T23:23:27.302Z,14.40
2018-09-08T23:27:31.497Z,14.30
2018-09-08T23:31:36.054Z,14.30
2018-09-08T23:35:40.227Z,14.20
2018-09-08T23:39:44.613Z,14.10
2018-09-08T23:43:48.911Z,14.10
2018-09-08T23:47:53.184Z,14.00
2018-09-08T23:51:57.697Z,14.00
2018-09-08T23:56:01.908Z,13.90
